Richard Maersk — OYIZ2 — position and weather

sailwx.info

Track history (hours):
 
Tides and Currents Weather Stations Pressure Air Temp Water Temp Dewpoint Dewpoint Depression Visibility Wind Speed Wind Dir Waves Ship Positions

Richard Maersk

Last reported at 2016-Apr-30 01:03 UTC. Time now 2016-May-04 11:43 UTC.
Position N 01°12' E 103°36'.

Length 171 m; draft 8.4 m.

Type: Ship (hazmat cat A). MMSI: 219967000.

Date/timePositionNaut miles runAvg speedWind from/ knotsBaromVisibWave heightAir tempDewpointWater temp
2016-Apr-30 01:03N 01°12' E 103°36'4 8.6
2016-Apr-30 00:32N 01°12' E 103°40'7 6.6
2016-Apr-29 23:33N 01°18' E 103°44'0 0.0
2016-Apr-29 22:23N 01°18' E 103°44'0 0.0
2016-Apr-29 21:32N 01°18' E 103°44'0 0.0
2016-Apr-29 20:29N 01°18' E 103°44'0 0.0
2016-Apr-29 19:32N 01°18' E 103°44'0 0.0
2016-Apr-29 18:32N 01°18' E 103°44'0 0.0
2016-Apr-29 17:14N 01°18' E 103°44'0 0.0
2016-Apr-29 16:08N 01°18' E 103°44'0 0.0
2016-Apr-29 12:20N 01°18' E 103°44'0 0.0
2016-Apr-29 11:05N 01°18' E 103°44'0 0.0
2016-Apr-29 09:14N 01°18' E 103°44'0 0.0
2016-Apr-29 08:17N 01°18' E 103°44'0 0.0
2016-Apr-29 06:11N 01°18' E 103°44'0 0.0
2016-Apr-29 05:20N 01°18' E 103°44'0 0.0
2016-Apr-29 04:11N 01°18' E 103°44'0 0.0
2016-Apr-29 02:11N 01°18' E 103°44'0 0.0
2016-Apr-29 01:33N 01°18' E 103°44'5 4.9
2016-Apr-29 00:33N 01°13' E 103°42'2 1.1
2016-Apr-28 22:29N 01°11' E 103°41'0 0.0
2016-Apr-28 21:29N 01°11' E 103°41'0 0.0
2016-Apr-28 18:32N 01°11' E 103°41'  
2016-Apr-25 20:32N 01°14' E 103°33'1 0.1
2016-Apr-25 05:33N 01°13' E 103°32'9 9.0
2016-Apr-25 04:33N 01°11' E 103°40'10 9.6
2016-Apr-25 03:33N 01°11' E 103°50'1211.7
2016-Apr-25 02:33N 01°15' E 104°01'  
Track history (hours):
 
Tides and Currents Weather Stations Pressure Air Temp Water Temp Dewpoint Dewpoint Depression Visibility Wind Speed Wind Dir Waves Ship Positions

Richard Maersk

Last reported at 2016-Apr-30 01:03 UTC. Time now 2016-May-04 11:43 UTC.
Position N 01°12' E 103°36'.

Length 171 m; draft 8.4 m.

Type: Ship (hazmat cat A). MMSI: 219967000.

Date/timePositionNaut miles runAvg speedWind from/ knotsBaromVisibWave heightAir tempDewpointWater temp
2016-Apr-30 01:03N 01°12' E 103°36'4 8.6
2016-Apr-30 00:32N 01°12' E 103°40'7 6.6
2016-Apr-29 23:33N 01°18' E 103°44'0 0.0
2016-Apr-29 22:23N 01°18' E 103°44'0 0.0
2016-Apr-29 21:32N 01°18' E 103°44'0 0.0
2016-Apr-29 20:29N 01°18' E 103°44'0 0.0
2016-Apr-29 19:32N 01°18' E 103°44'0 0.0
2016-Apr-29 18:32N 01°18' E 103°44'0 0.0
2016-Apr-29 17:14N 01°18' E 103°44'0 0.0
2016-Apr-29 16:08N 01°18' E 103°44'0 0.0
2016-Apr-29 12:20N 01°18' E 103°44'0 0.0
2016-Apr-29 11:05N 01°18' E 103°44'0 0.0
2016-Apr-29 09:14N 01°18' E 103°44'0 0.0
2016-Apr-29 08:17N 01°18' E 103°44'0 0.0
2016-Apr-29 06:11N 01°18' E 103°44'0 0.0
2016-Apr-29 05:20N 01°18' E 103°44'0 0.0
2016-Apr-29 04:11N 01°18' E 103°44'0 0.0
2016-Apr-29 02:11N 01°18' E 103°44'0 0.0
2016-Apr-29 01:33N 01°18' E 103°44'5 4.9
2016-Apr-29 00:33N 01°13' E 103°42'2 1.1
2016-Apr-28 22:29N 01°11' E 103°41'0 0.0
2016-Apr-28 21:29N 01°11' E 103°41'0 0.0
2016-Apr-28 18:32N 01°11' E 103°41'  
2016-Apr-25 20:32N 01°14' E 103°33'1 0.1
2016-Apr-25 05:33N 01°13' E 103°32'9 9.0
2016-Apr-25 04:33N 01°11' E 103°40'10 9.6
2016-Apr-25 03:33N 01°11' E 103°50'1211.7
2016-Apr-25 02:33N 01°15' E 104°01'  

Dump ship's entire track history